Franklin, Idaho
Current Conditions -  °F | °C
As of 2:51 PM on Sunday 23 Nov 2014 (Local Time) from KLGU Reporting Station
Clear Clear  
Wind Chill: 36°   Ceiling: Unl
Heat Index: 39°   Visibility: 10mi
Dew Point: 21°   Wind: 5mph
Humidity: 49%   Direction: 250°WSW
Pressure: 30.2"   Gusts: NA
Location:  42.01°N, 111.81°W
Report Text: KLGU 232151Z AUTO 25004KT 10SM CLR 04/M06 A3020 RMK AO2 SLP233 T00391061
Loading
Personal Weather Stations






























Interactive Weather Map New forecast layout! Learn more

10-Day Weather Forecast

Advertisements
Track Severe Weather on mobile